< Typhoon 200605 2006 Season Typhoon 200607 >
Typhoon 200606 (PRAPIROON)
General InformationTrack Information on Google MapsDetailed Wind InformationAccess Analytics MapList of All Images || NewsDisaster Info.WeblogTrackbackTyphoon FrontResourceGoogle EarthGE AnimationAtom FeedGeoJSON
Detalied Best Track (Time Zone = UTC)
Year Month Day Hour Lat. Long. Pressure (hPa) Wind (kt) Class Image Chart
2006 7 28 06 13.4 129.5 1004 0 2 Image Chart
2006 7 28 12 13.5 129.2 1004 0 2 Image Chart
2006 7 28 18 13.5 128.9 1004 0 2 Image Chart
2006 7 29 00 13.6 128.7 1004 0 2 Image Chart
2006 7 29 06 13.7 128.4 1004 0 2 Image Chart
2006 7 29 12 13.8 127.9 1004 0 2 Image Chart
2006 7 29 18 13.9 127.5 1004 0 2 Image Chart
2006 7 30 00 14.1 127.0 1004 0 2 Image Chart
2006 7 30 06 14.3 126.3 1004 0 2 Image Chart
2006 7 30 12 14.6 125.3 1004 0 2 Image Chart
2006 7 30 18 15.0 124.3 1004 0 2 Image Chart
2006 7 31 00 15.5 123.3 1004 0 2 Image Chart
2006 7 31 06 16.2 122.2 1002 0 2 Image Chart
2006 7 31 12 16.6 121.1 1002 0 2 Image Chart
2006 7 31 18 16.7 119.6 1002 0 2 Image Chart
2006 8 1 00 16.7 118.4 1000 0 2 Image Chart
2006 8 1 06 17.0 117.7 998 35 3 Image Chart
2006 8 1 12 17.5 116.7 994 40 3 Image Chart
2006 8 1 18 17.5 116.0 985 50 4 Image Chart
2006 8 2 00 18.1 115.2 980 55 4 Image Chart
2006 8 2 06 18.9 114.8 975 60 4 Image Chart
2006 8 2 12 19.2 113.7 970 65 5 Image Chart
2006 8 2 18 19.3 113.2 970 65 5 Image Chart
2006 8 3 00 20.1 112.8 970 65 5 Image Chart
2006 8 3 06 20.9 112.2 970 65 5 Image Chart
2006 8 3 12 21.6 111.5 975 60 4 Image Chart
2006 8 3 18 21.8 110.3 980 60 4 Image Chart
2006 8 4 00 22.2 109.6 985 50 4 Image Chart
2006 8 4 06 22.9 109.0 990 45 3 Image Chart
2006 8 4 12 23.4 108.4 994 40 3 Image Chart
2006 8 4 18 23.9 107.7 996 35 3 Image Chart
2006 8 5 00 24.0 107.0 998 0 2 Image Chart
2006 8 5 06 23.9 106.6 1002 0 2 Image Chart
Japan Meteorological Agency Best Track Data | Correction Date : 2006-08-31
< Typhoon 200605 2006 Season Typhoon 200607 >

Help